Hyvinkään lentokentän sää

Sää nyt

Mitattu 14.7. 12:00
17.8°, kosteus 99% (18°)
Aurinko: 04:17 - 22:34



Lähialueen METARit

METAR EFHK 140820Z 20007KT 4000 -RA BR SCT003 BKN005 BKN016 18/18 Q1011 BECMG 8000=

METAR EFTU 140820Z AUTO 16010KT 120V200 9999 OVC010 18/16 Q1009=

METAR EFTP 140820Z AUTO 11010KT 070V140 9999 FEW030 22/15 Q1011=

Sää lentopaikoilla (fmi)

Tunnin tuulihistoria

Sääennuste

KelloTHum, DpTuuli (kt)Pilvet
14.07.
12:0019°85%, 16°115° 7(15)8/8
14:0017°94%, 16°175° 3(13)8/8
16:0018°94%, 16°140° 4(8)8/8
18:0019°89%, 17°125° 5(10)8/8
20:0019°85%, 16°160° 6(10)8/8
22:0018°87%, 15°190° 2(7)1/8
15.07.
01:0017°91%, 15°135° 2(5)3/8
04:0017°89%, 14°215° 4(7)6/8
07:0016°88%, 14°230° 5(9)2/8
10:0019°68%, 11°225° 4(11)1/8
13:0023°52%, 8°230° 5(13)3/8
16:0024°46%, 7°240° 6(15)6/8
19:0023°50%, 8°250° 6(15)1/8
22:0020°63%, 10°195° 3(8)0/8
16.07.
02:0016°80%, 12°255° 1(3)0/8
06:0016°80%, 12°170° 2(4)0/8
10:0017°88%, 14°115° 5(9)2/8

Tietoja kentästä